Time;durP1;ratioP1;P1;durP2;ratioP2;P2;SDS_P1;SDS_P2;PMS_P1;PMS_P2;Temp;Humidity;BMP_temperature;BMP_pressure;BME280_temperature;BME280_humidity;BME280_pressure;Samples;Min_cycle;Max_cycle;Signal;HPM_P1;HPM_P2
2021/01/10 00:00:22;;;;;;;30.83;16.93;;;2.70;87.80;;;;;;5093588;28;20028;-77
2021/01/10 00:02:48;;;;;;;30.10;17.80;;;2.60;87.60;;;;;;5091472;28;20071;-77
2021/01/10 00:05:25;;;;;;;31.30;19.10;;;2.60;87.50;;;;;;5091637;28;20056;-77
2021/01/10 00:07:52;;;;;;;31.50;18.60;;;2.50;87.40;;;;;;5091271;28;20043;-78
2021/01/10 00:10:19;;;;;;;29.57;17.43;;;2.50;87.60;;;;;;5091553;28;20077;-78
2021/01/10 00:12:45;;;;;;;32.07;18.47;;;2.60;87.90;;;;;;5090995;28;20048;-77
2021/01/10 00:15:13;;;;;;;32.50;18.00;;;2.70;88.00;;;;;;5093509;28;20036;-77
2021/01/10 00:17:40;;;;;;;33.40;18.77;;;2.80;88.00;;;;;;5091751;28;20087;-77
2021/01/10 00:20:08;;;;;;;32.27;18.40;;;2.80;87.80;;;;;;5091600;28;20024;-77
2021/01/10 00:22:34;;;;;;;33.23;18.70;;;2.80;87.80;;;;;;5090827;28;20024;-76
2021/01/10 00:25:00;;;;;;;31.63;18.80;;;2.90;88.00;;;;;;5091268;28;20085;-77
2021/01/10 00:27:26;;;;;;;32.47;19.73;;;3.00;88.00;;;;;;5090946;28;20466;-77
2021/01/10 00:29:53;;;;;;;34.83;18.07;;;3.00;87.50;;;;;;5089487;28;20036;-77
2021/01/10 00:32:19;;;;;;;31.00;18.27;;;2.90;87.20;;;;;;5093013;28;20028;-77
2021/01/10 00:34:45;;;;;;;33.10;18.43;;;2.90;87.20;;;;;;5074033;28;20043;-77
2021/01/10 00:37:20;;;;;;;35.40;18.60;;;2.90;87.20;;;;;;5091613;28;20028;-77
2021/01/10 00:39:47;;;;;;;35.40;19.07;;;2.90;87.10;;;;;;5091672;28;20035;-77
2021/01/10 00:42:14;;;;;;;32.67;18.80;;;2.90;87.20;;;;;;5091389;28;20066;-76
2021/01/10 00:44:41;;;;;;;34.03;18.60;;;2.90;87.10;;;;;;5073343;28;20104;-76
2021/01/10 00:47:08;;;;;;;34.37;18.97;;;2.80;86.90;;;;;;5091263;28;20036;-77
2021/01/10 00:49:34;;;;;;;37.70;19.97;;;2.90;87.20;;;;;;5090842;28;20468;-77
2021/01/10 00:52:02;;;;;;;33.93;18.73;;;2.90;87.30;;;;;;5091720;28;20028;-77
2021/01/10 00:54:28;;;;;;;31.83;19.07;;;2.90;87.30;;;;;;5091926;28;20031;-77
2021/01/10 00:56:54;;;;;;;34.83;19.47;;;2.90;87.30;;;;;;5090024;28;20020;-77
2021/01/10 00:59:20;;;;;;;32.50;18.83;;;2.90;87.20;;;;;;5090580;28;20378;-77
2021/01/10 01:01:45;;;;;;;38.23;19.57;;;2.80;87.10;;;;;;5073004;28;20035;-76
2021/01/10 01:04:11;;;;;;;32.60;18.60;;;2.80;87.20;;;;;;5073479;28;20039;-76
2021/01/10 01:06:37;;;;;;;36.00;19.40;;;2.70;87.20;;;;;;5090175;28;20043;-76
2021/01/10 01:09:06;;;;;;;36.33;20.40;;;2.70;87.40;;;;;;5073270;28;20042;-77
2021/01/10 01:11:34;;;;;;;34.40;19.50;;;2.60;87.40;;;;;;5090513;28;20020;-76
2021/01/10 01:14:00;;;;;;;38.90;20.17;;;2.60;87.60;;;;;;5090043;28;20552;-77
2021/01/10 01:16:26;;;;;;;33.40;18.80;;;2.50;87.80;;;;;;5091971;28;20104;-76
2021/01/10 01:18:51;;;;;;;39.00;21.03;;;2.40;87.40;;;;;;5090605;28;20414;-76
2021/01/10 01:21:18;;;;;;;37.30;20.77;;;2.30;87.50;;;;;;5090592;28;20067;-75
2021/01/10 01:23:44;;;;;;;44.00;20.83;;;2.20;87.90;;;;;;5090972;28;20024;-76
2021/01/10 01:26:17;;;;;;;43.00;20.70;;;2.20;88.20;;;;;;5073770;28;20035;-76
2021/01/10 01:28:43;;;;;;;44.88;21.40;;;2.10;88.30;;;;;;5089587;28;20036;-75
2021/01/10 01:31:14;;;;;;;42.30;21.63;;;2.00;88.20;;;;;;5090340;28;20020;-75
2021/01/10 01:33:40;;;;;;;46.60;22.73;;;2.00;88.60;;;;;;5089546;28;20028;-75
2021/01/10 01:36:10;;;;;;;43.43;22.40;;;1.90;89.10;;;;;;5073531;28;20111;-74
2021/01/10 01:38:39;;;;;;;41.43;20.90;;;1.90;88.70;;;;;;5090114;28;20373;-75
2021/01/10 01:41:08;;;;;;;39.57;20.60;;;1.90;89.10;;;;;;5073516;28;20472;-74
2021/01/10 01:43:35;;;;;;;37.10;20.53;;;1.90;89.10;;;;;;5090158;28;20093;-75
2021/01/10 01:46:02;;;;;;;43.90;21.90;;;1.80;89.20;;;;;;5055699;28;20036;-75
2021/01/10 01:48:29;;;;;;;39.97;20.30;;;1.80;89.40;;;;;;5091431;28;20027;-75
2021/01/10 01:50:59;;;;;;;39.60;20.77;;;1.80;89.30;;;;;;5089410;28;20028;-76
2021/01/10 01:53:26;;;;;;;39.43;20.07;;;1.80;89.50;;;;;;5089981;28;20024;-76
2021/01/10 01:55:53;;;;;;;49.87;27.93;;;1.70;89.60;;;;;;5090592;28;20028;-75
2021/01/10 01:58:20;;;;;;;45.80;26.10;;;1.70;89.60;;;;;;5089117;28;20060;-75
2021/01/10 02:00:46;;;;;;;39.27;22.67;;;1.70;89.50;;;;;;5090212;28;20028;-75
2021/01/10 02:03:38;;;;;;;39.53;21.50;;;1.60;89.30;;;;;;5090453;28;20060;-76
2021/01/10 02:06:14;;;;;;;41.77;21.77;;;1.50;89.70;;;;;;5089140;28;20511;-75
2021/01/10 02:08:41;;;;;;;41.60;22.53;;;1.60;90.00;;;;;;5090384;28;20036;-75
2021/01/10 02:11:11;;;;;;;39.13;22.27;;;1.70;90.00;;;;;;5089799;28;20032;-75
2021/01/10 02:13:38;;;;;;;41.77;22.57;;;1.80;90.00;;;;;;5089522;28;20024;-76
2021/01/10 02:16:05;;;;;;;43.50;23.03;;;1.80;90.00;;;;;;5090687;28;20473;-75
2021/01/10 02:18:34;;;;;;;44.73;22.13;;;1.90;89.80;;;;;;5089936;28;20036;-76
2021/01/10 02:21:06;;;;;;;51.13;25.20;;;1.80;89.50;;;;;;5088762;28;20081;-76
2021/01/10 02:23:33;;;;;;;43.22;23.02;;;1.90;89.70;;;;;;5089918;28;20137;-75
2021/01/10 02:25:59;;;;;;;44.83;23.03;;;1.80;89.60;;;;;;5088761;28;20047;-75
2021/01/10 02:28:27;;;;;;;46.27;24.23;;;1.70;89.60;;;;;;5089174;28;20040;-75
2021/01/10 02:30:54;;;;;;;46.57;24.50;;;1.70;89.60;;;;;;5090266;28;20028;-75
2021/01/10 02:33:44;;;;;;;49.07;23.60;;;1.60;89.70;;;;;;5089700;28;20123;-75
2021/01/10 02:36:35;;;;;;;47.17;23.63;;;1.70;89.90;;;;;;5089539;28;20035;-75
2021/01/10 02:39:26;;;;;;;43.67;24.50;;;1.70;89.80;;;;;;5089602;28;20016;-75
2021/01/10 02:41:55;;;;;;;43.63;23.63;;;1.70;89.70;;;;;;5088885;28;20027;-76
2021/01/10 02:44:30;;;;;;;43.07;23.63;;;1.70;89.60;;;;;;5090523;28;20543;-75
2021/01/10 02:46:56;;;;;;;43.07;23.20;;;1.70;89.50;;;;;;5089744;28;20024;-76
2021/01/10 02:49:22;;;;;;;43.83;23.53;;;1.70;89.60;;;;;;5089565;28;20024;-76
2021/01/10 02:51:51;;;;;;;45.67;23.43;;;1.60;89.40;;;;;;5088916;28;20028;-75
2021/01/10 02:54:18;;;;;;;46.80;24.77;;;1.60;89.60;;;;;;5075729;28;20571;-75
2021/01/10 02:57:06;;;;;;;42.10;23.40;;;1.50;89.50;;;;;;5059170;28;20034;-76
2021/01/10 02:59:36;;;;;;;48.73;24.07;;;1.50;89.50;;;;;;5094369;28;20032;-75
2021/01/10 03:02:04;;;;;;;44.00;23.53;;;1.50;89.70;;;;;;5092873;28;20080;-75
2021/01/10 03:04:30;;;;;;;45.77;23.77;;;1.40;89.90;;;;;;5094207;28;20506;-75
2021/01/10 03:06:58;;;;;;;43.13;22.70;;;1.40;89.80;;;;;;5092274;28;20028;-75
2021/01/10 03:09:25;;;;;;;43.37;22.83;;;1.40;90.00;;;;;;5094448;28;20028;-75
2021/01/10 03:11:55;;;;;;;41.23;23.13;;;1.30;89.90;;;;;;5092228;28;20464;-75
2021/01/10 03:14:22;;;;;;;43.37;24.20;;;1.30;89.70;;;;;;5094262;28;20058;-74
2021/01/10 03:16:50;;;;;;;41.13;22.30;;;1.30;89.60;;;;;;5075368;28;20028;-75
2021/01/10 03:19:15;;;;;;;40.13;23.57;;;1.20;89.60;;;;;;5092897;28;20020;-75
2021/01/10 03:21:41;;;;;;;43.00;23.67;;;1.20;89.60;;;;;;5092899;28;20069;-74
2021/01/10 03:24:07;;;;;;;44.63;22.47;;;1.20;89.90;;;;;;5075358;28;20054;-74
2021/01/10 03:26:32;;;;;;;41.53;22.27;;;1.30;90.10;;;;;;5093833;28;20522;-75
2021/01/10 03:28:58;;;;;;;43.13;24.00;;;1.30;90.10;;;;;;5091796;28;20464;-75
2021/01/10 03:31:24;;;;;;;44.00;24.10;;;1.30;90.00;;;;;;5072226;28;20040;-74
2021/01/10 03:33:49;;;;;;;46.03;24.87;;;1.30;89.90;;;;;;5086745;28;20040;-75
2021/01/10 03:36:16;;;;;;;43.03;23.60;;;1.30;89.70;;;;;;5075844;28;20035;-74
2021/01/10 03:38:42;;;;;;;43.37;23.43;;;1.40;89.90;;;;;;5092661;28;20055;-74
2021/01/10 03:41:08;;;;;;;39.00;23.47;;;1.50;90.00;;;;;;5093128;28;20124;-75
2021/01/10 03:43:35;;;;;;;42.43;23.47;;;1.60;90.20;;;;;;5075433;28;20407;-75
2021/01/10 03:46:01;;;;;;;43.27;23.90;;;1.60;90.00;;;;;;5092653;28;20036;-74
2021/01/10 03:48:27;;;;;;;44.37;23.97;;;1.70;89.70;;;;;;5075843;28;20028;-75
2021/01/10 03:50:53;;;;;;;40.37;22.17;;;1.60;89.70;;;;;;5091592;28;20467;-75
2021/01/10 03:53:18;;;;;;;42.07;23.43;;;1.80;89.90;;;;;;5075463;28;20471;-74
2021/01/10 03:55:44;;;;;;;43.90;23.70;;;1.90;90.10;;;;;;5092020;28;20047;-75
2021/01/10 03:58:09;;;;;;;40.97;22.70;;;1.90;89.90;;;;;;5091568;28;20035;-75
2021/01/10 04:00:35;;;;;;;45.53;24.20;;;1.90;89.30;;;;;;5091459;28;20496;-74
2021/01/10 04:03:01;;;;;;;38.67;22.90;;;1.80;89.30;;;;;;5092576;28;20031;-74
2021/01/10 04:05:26;;;;;;;37.50;22.40;;;1.90;89.60;;;;;;5093022;28;20088;-74
2021/01/10 04:07:52;;;;;;;41.87;24.00;;;1.80;88.80;;;;;;5091363;28;20395;-75
2021/01/10 04:10:18;;;;;;;40.20;22.63;;;1.70;88.30;;;;;;5075024;28;20444;-75
2021/01/10 04:12:43;;;;;;;39.47;23.10;;;1.60;88.30;;;;;;5092001;28;20031;-74
2021/01/10 04:15:09;;;;;;;39.30;23.40;;;1.60;88.70;;;;;;5090911;28;20109;-74
2021/01/10 04:17:35;;;;;;;36.60;22.27;;;1.60;88.40;;;;;;5073319;28;20029;-74
2021/01/10 04:20:00;;;;;;;36.97;22.47;;;1.60;88.40;;;;;;5070848;28;20541;-75
2021/01/10 04:22:26;;;;;;;41.10;23.47;;;1.60;88.70;;;;;;5054962;28;20033;-74
2021/01/10 04:24:52;;;;;;;36.43;22.27;;;1.80;89.10;;;;;;5053836;28;20406;-74
2021/01/10 04:27:21;;;;;;;39.90;23.37;;;1.80;88.40;;;;;;5071322;28;20033;-74
2021/01/10 04:29:46;;;;;;;37.07;22.83;;;1.80;88.20;;;;;;5054251;28;20387;-74
2021/01/10 04:32:12;;;;;;;40.90;22.97;;;1.70;87.90;;;;;;5090141;28;20036;-74
2021/01/10 04:34:38;;;;;;;37.87;21.97;;;1.70;88.50;;;;;;5074091;28;20086;-74
2021/01/10 04:37:04;;;;;;;39.40;22.77;;;1.90;89.10;;;;;;5091679;28;20028;-74
2021/01/10 04:39:29;;;;;;;37.73;22.27;;;1.90;89.10;;;;;;5091376;28;20032;-74
2021/01/10 04:41:55;;;;;;;38.53;22.97;;;2.00;88.90;;;;;;5090596;28;20036;-75
2021/01/10 04:44:23;;;;;;;35.77;21.67;;;1.90;88.90;;;;;;5091016;28;20028;-75
2021/01/10 04:46:49;;;;;;;40.23;22.03;;;2.00;88.90;;;;;;5090800;28;20028;-75
2021/01/10 04:49:16;;;;;;;34.63;21.07;;;2.00;88.90;;;;;;5074229;28;20032;-74
2021/01/10 04:51:42;;;;;;;35.20;21.87;;;2.10;89.10;;;;;;5091093;28;20043;-75
2021/01/10 04:54:10;;;;;;;36.20;22.53;;;2.10;88.90;;;;;;5090261;28;20038;-75
2021/01/10 04:56:37;;;;;;;36.80;22.10;;;2.10;88.70;;;;;;5091221;28;20537;-74
2021/01/10 04:59:04;;;;;;;42.13;23.60;;;2.10;88.80;;;;;;5073092;28;20039;-75
2021/01/10 05:01:52;;;;;;;34.57;21.50;;;2.10;88.70;;;;;;5070097;28;20365;-75
2021/01/10 05:04:17;;;;;;;35.77;22.03;;;2.10;88.60;;;;;;5070096;28;20377;-74
2021/01/10 05:06:45;;;;;;;31.20;20.57;;;2.20;88.80;;;;;;5070838;28;20034;-75
2021/01/10 05:09:10;;;;;;;37.33;23.00;;;2.20;88.70;;;;;;5069860;28;20029;-75
2021/01/10 05:11:36;;;;;;;40.57;24.00;;;2.20;88.40;;;;;;5087392;28;20016;-74
2021/01/10 05:14:05;;;;;;;47.67;27.00;;;2.20;88.70;;;;;;5070986;28;20028;-75
2021/01/10 05:16:32;;;;;;;46.00;26.40;;;2.30;88.60;;;;;;5089692;28;20111;-75
2021/01/10 05:18:59;;;;;;;36.87;22.67;;;2.30;88.30;;;;;;5089841;28;20020;-75
2021/01/10 05:21:25;;;;;;;39.30;21.83;;;2.30;88.20;;;;;;5091951;28;20024;-74
2021/01/10 05:23:53;;;;;;;34.83;20.77;;;2.40;88.40;;;;;;5073322;28;20028;-75
2021/01/10 05:26:20;;;;;;;32.30;20.50;;;2.40;88.30;;;;;;5074049;28;20031;-75
2021/01/10 05:28:46;;;;;;;30.67;20.47;;;2.40;88.00;;;;;;5056881;28;20032;-75
2021/01/10 05:31:12;;;;;;;33.73;20.07;;;2.30;87.50;;;;;;5089402;28;20144;-75
2021/01/10 05:33:52;;;;;;;34.77;20.63;;;2.20;87.30;;;;;;5073614;28;20380;-75
2021/01/10 05:36:26;;;;;;;30.40;19.97;;;2.20;87.30;;;;;;5089968;28;20054;-74
2021/01/10 05:38:52;;;;;;;32.03;20.27;;;2.30;87.80;;;;;;5073403;28;20029;-74
2021/01/10 05:41:18;;;;;;;35.50;20.43;;;2.30;87.80;;;;;;5091085;28;20031;-74
2021/01/10 05:44:00;;;;;;;32.23;20.77;;;2.40;87.90;;;;;;5091679;28;20038;-74
2021/01/10 05:46:29;;;;;;;34.43;19.83;;;2.30;85.90;;;;;;5090447;28;20530;-74
2021/01/10 05:48:55;;;;;;;35.03;21.03;;;2.10;85.90;;;;;;5089382;28;20036;-74
2021/01/10 05:51:24;;;;;;;32.20;20.80;;;2.10;87.10;;;;;;5091436;28;20380;-74
2021/01/10 05:53:50;;;;;;;34.53;21.20;;;2.20;87.50;;;;;;5090273;28;20016;-74
2021/01/10 05:56:18;;;;;;;31.40;19.53;;;2.20;87.10;;;;;;5089415;28;20376;-74
2021/01/10 05:58:45;;;;;;;31.87;19.97;;;2.30;87.40;;;;;;5090743;28;20111;-75
2021/01/10 06:01:12;;;;;;;32.63;20.93;;;2.50;88.00;;;;;;5085387;28;20028;-75
2021/01/10 06:03:39;;;;;;;36.00;21.70;;;2.50;86.80;;;;;;5090984;28;20086;-74
2021/01/10 06:06:06;;;;;;;37.57;22.17;;;2.40;86.10;;;;;;5089091;28;20081;-74
2021/01/10 06:08:38;;;;;;;36.97;21.97;;;2.30;86.90;;;;;;5091332;28;20020;-74
2021/01/10 06:11:24;;;;;;;33.93;19.80;;;2.50;87.80;;;;;;5088915;28;20535;-74
2021/01/10 06:14:00;;;;;;;33.07;20.80;;;2.60;87.70;;;;;;5090059;28;20028;-74
2021/01/10 06:16:32;;;;;;;35.33;20.57;;;2.60;87.40;;;;;;5090106;28;20012;-74
2021/01/10 06:19:05;;;;;;;32.53;20.40;;;2.70;87.80;;;;;;5090446;28;20021;-75
2021/01/10 06:21:32;;;;;;;33.30;19.73;;;2.80;87.80;;;;;;5091468;28;20491;-74
2021/01/10 06:24:00;;;;;;;29.43;18.77;;;2.70;87.00;;;;;;5088587;28;20028;-74
2021/01/10 06:26:27;;;;;;;32.80;20.27;;;2.70;86.80;;;;;;5089892;28;20028;-74
2021/01/10 06:28:55;;;;;;;35.47;20.97;;;2.70;87.20;;;;;;5072845;28;20060;-75
2021/01/10 06:31:23;;;;;;;40.63;22.63;;;2.70;87.50;;;;;;5073288;28;20059;-74
2021/01/10 06:33:55;;;;;;;35.20;20.70;;;2.60;85.70;;;;;;5090424;28;20028;-74
2021/01/10 06:36:22;;;;;;;42.40;22.93;;;2.40;86.30;;;;;;5090201;28;20071;-74
2021/01/10 06:38:52;;;;;;;39.70;23.30;;;2.40;86.50;;;;;;5074825;28;20067;-74
2021/01/10 06:41:55;;;;;;;39.63;21.50;;;2.30;85.70;;;;;;5089520;28;20024;-76
2021/01/10 06:44:21;;;;;;;43.17;23.88;;;2.30;86.80;;;;;;5092677;28;20040;-76
2021/01/10 06:46:53;;;;;;;44.90;24.47;;;2.40;87.10;;;;;;5076945;28;20028;-76
2021/01/10 06:49:19;;;;;;;68.13;24.37;;;2.40;87.00;;;;;;5092676;28;20028;-76
2021/01/10 06:51:50;;;;;;;42.33;23.37;;;2.40;86.90;;;;;;5076853;28;20036;-76
2021/01/10 06:54:16;;;;;;;41.03;23.23;;;2.40;87.10;;;;;;5092713;28;20028;-76
2021/01/10 06:56:52;;;;;;;44.83;22.97;;;2.40;86.70;;;;;;5093682;28;20032;-75
2021/01/10 06:59:26;;;;;;;44.87;24.23;;;2.30;86.50;;;;;;5095976;28;20043;-74
2021/01/10 07:01:51;;;;;;;46.67;25.13;;;2.30;86.90;;;;;;5109697;28;20028;-75
2021/01/10 07:04:19;;;;;;;48.23;24.73;;;2.50;87.70;;;;;;5106064;28;20121;-74
2021/01/10 07:06:46;;;;;;;49.23;24.87;;;2.50;87.20;;;;;;5108631;28;20104;-76
2021/01/10 07:09:13;;;;;;;48.83;26.10;;;2.50;87.40;;;;;;5085267;28;20024;-75
2021/01/10 07:11:39;;;;;;;45.63;24.87;;;2.50;87.30;;;;;;5091176;28;20490;-75
2021/01/10 07:14:05;;;;;;;53.27;26.50;;;2.60;87.50;;;;;;5089972;28;20107;-75
2021/01/10 07:16:31;;;;;;;49.17;25.60;;;2.70;86.80;;;;;;5091612;28;20420;-75
2021/01/10 07:19:03;;;;;;;49.67;26.37;;;2.50;85.90;;;;;;5076589;28;20028;-75
2021/01/10 07:21:32;;;;;;;44.93;25.87;;;2.50;86.80;;;;;;5094062;28;20074;-74
2021/01/10 07:24:12;;;;;;;52.27;27.07;;;2.60;87.30;;;;;;5092023;28;20039;-76
2021/01/10 07:26:46;;;;;;;55.67;27.70;;;2.70;87.30;;;;;;5091469;28;20033;-74
2021/01/10 07:29:34;;;;;;;52.00;26.77;;;2.70;87.40;;;;;;5090297;28;20038;-74
2021/01/10 07:32:19;;;;;;;55.80;29.37;;;2.80;87.70;;;;;;5092750;28;20050;-74
2021/01/10 07:34:44;;;;;;;57.97;28.47;;;2.80;86.80;;;;;;5092377;28;20040;-74
2021/01/10 07:37:11;;;;;;;56.10;30.07;;;2.70;87.10;;;;;;5091403;28;20122;-74
2021/01/10 07:39:49;;;;;;;64.30;31.47;;;2.80;87.50;;;;;;5091572;28;20119;-74
2021/01/10 07:42:16;;;;;;;60.07;31.13;;;2.80;86.60;;;;;;5073895;28;20544;-73
2021/01/10 07:44:55;;;;;;;59.97;30.20;;;2.50;84.80;;;;;;5074683;28;20044;-74
2021/01/10 07:47:33;;;;;;;62.60;31.30;;;2.30;85.80;;;;;;5091568;28;20027;-74
2021/01/10 07:50:05;;;;;;;64.50;32.43;;;2.20;85.40;;;;;;5087315;28;20052;-75
2021/01/10 07:52:46;;;;;;;68.07;34.15;;;2.00;85.60;;;;;;5091642;28;20016;-74
2021/01/10 07:55:20;;;;;;;66.60;34.37;;;2.10;87.20;;;;;;5089718;28;20032;-74
2021/01/10 07:57:51;;;;;;;65.80;33.53;;;2.40;87.90;;;;;;5092418;28;20463;-73
2021/01/10 08:00:21;;;;;;;61.17;32.77;;;2.60;88.00;;;;;;5107446;28;20036;-73
2021/01/10 08:03:02;;;;;;;59.43;33.60;;;2.70;87.80;;;;;;5091312;28;20085;-74
2021/01/10 08:05:35;;;;;;;58.43;32.17;;;2.80;87.70;;;;;;5088515;28;20067;-74
2021/01/10 08:08:14;;;;;;;64.35;34.95;;;2.90;87.80;;;;;;5091608;28;20032;-73
2021/01/10 08:10:47;;;;;;;61.10;32.67;;;3.10;88.40;;;;;;5092171;28;20024;-74
2021/01/10 08:13:29;;;;;;;58.93;33.77;;;3.20;87.80;;;;;;5090214;28;20051;-74
2021/01/10 08:15:58;;;;;;;58.10;33.43;;;3.10;87.50;;;;;;5089963;28;20513;-74
2021/01/10 08:18:27;;;;;;;50.93;30.80;;;3.20;87.70;;;;;;5090576;28;20467;-74
2021/01/10 08:20:56;;;;;;;52.67;30.57;;;3.30;87.90;;;;;;5079096;28;20028;-74
2021/01/10 08:23:23;;;;;;;48.80;29.63;;;3.40;87.60;;;;;;5091422;28;20016;-74
2021/01/10 08:25:51;;;;;;;49.93;30.13;;;3.40;87.50;;;;;;5091177;28;20028;-74
2021/01/10 08:28:18;;;;;;;54.70;31.37;;;3.30;86.90;;;;;;5088970;28;20047;-74
2021/01/10 08:30:44;;;;;;;47.40;30.60;;;3.40;87.60;;;;;;5074328;28;20028;-73
2021/01/10 08:33:20;;;;;;;49.70;30.20;;;3.50;87.70;;;;;;5087717;28;20073;-74
2021/01/10 08:35:46;;;;;;;42.87;27.37;;;3.50;87.60;;;;;;5090622;28;20162;-74
2021/01/10 08:38:12;;;;;;;45.13;26.77;;;3.50;87.00;;;;;;5071231;28;20028;-75
2021/01/10 08:40:38;;;;;;;42.73;27.67;;;3.50;86.50;;;;;;5084753;28;20395;-75
2021/01/10 08:43:04;;;;;;;48.40;29.93;;;3.50;86.20;;;;;;5088245;28;20036;-76
2021/01/10 08:45:30;;;;;;;42.93;26.13;;;3.40;86.50;;;;;;5088955;28;20467;-74
2021/01/10 08:48:00;;;;;;;42.50;26.13;;;3.40;86.60;;;;;;5052526;28;20468;-75
2021/01/10 08:50:26;;;;;;;45.30;27.07;;;3.40;86.50;;;;;;5086238;28;20056;-75
2021/01/10 08:52:52;;;;;;;45.73;28.50;;;3.50;86.60;;;;;;5090088;28;20052;-76
2021/01/10 08:55:37;;;;;;;42.67;27.37;;;3.50;86.90;;;;;;5077830;28;20040;-75
2021/01/10 08:58:05;;;;;;;38.20;25.30;;;3.70;87.10;;;;;;5090564;28;20114;-76
2021/01/10 09:00:31;;;;;;;49.53;29.20;;;3.70;86.40;;;;;;5090572;28;20028;-75
2021/01/10 09:03:17;;;;;;;42.93;28.33;;;3.70;86.20;;;;;;5089956;28;20036;-75
2021/01/10 09:05:49;;;;;;;42.43;25.50;;;3.90;86.30;;;;;;5101590;28;20155;-75
2021/01/10 09:08:27;;;;;;;46.30;28.77;;;4.00;85.70;;;;;;5087797;28;20464;-75
2021/01/10 09:11:20;;;;;;;49.63;30.10;;;4.10;85.10;;;;;;5088455;28;20020;-75
2021/01/10 09:13:49;;;;;;;50.37;30.90;;;4.20;85.20;;;;;;5089244;28;20123;-75
2021/01/10 09:16:17;;;;;;;52.33;30.60;;;4.20;85.00;;;;;;5090754;28;20040;-77
2021/01/10 09:18:47;;;;;;;48.37;28.70;;;4.30;85.00;;;;;;5090057;28;20044;-76
2021/01/10 09:21:15;;;;;;;53.23;32.33;;;4.30;84.20;;;;;;5080343;28;20035;-77
2021/01/10 09:23:52;;;;;;;40.70;26.13;;;4.40;84.50;;;;;;5085915;28;20024;-76
2021/01/10 09:26:29;;;;;;;50.70;28.47;;;4.40;83.30;;;;;;5088513;28;20533;-77
2021/01/10 09:28:56;;;;;;;49.37;30.73;;;4.20;83.00;;;;;;5090526;28;20036;-77
2021/01/10 09:31:43;;;;;;;50.27;29.87;;;4.20;83.60;;;;;;5088338;28;20121;-78
2021/01/10 09:34:09;;;;;;;50.30;29.63;;;4.30;83.70;;;;;;5070386;28;20130;-77
2021/01/10 09:36:36;;;;;;;56.63;31.07;;;4.30;83.80;;;;;;5091549;28;20024;-77
2021/01/10 09:39:03;;;;;;;57.57;31.93;;;4.30;83.50;;;;;;5090436;28;20020;-78
2021/01/10 09:41:28;;;;;;;56.47;33.70;;;4.30;83.70;;;;;;5088561;28;20037;-78
2021/01/10 09:43:56;;;;;;;56.57;32.60;;;4.30;83.70;;;;;;5090737;28;20143;-77
2021/01/10 09:46:30;;;;;;;57.53;32.07;;;4.30;83.80;;;;;;5084567;28;20059;-76
2021/01/10 09:49:03;;;;;;;52.40;30.33;;;4.40;83.90;;;;;;5082302;28;20054;-77
2021/01/10 09:51:42;;;;;;;57.25;32.53;;;4.30;83.90;;;;;;5075672;28;20117;-76
2021/01/10 09:54:19;;;;;;;57.57;31.70;;;4.40;83.90;;;;;;5082099;28;20458;-76
2021/01/10 09:56:51;;;;;;;50.73;31.57;;;4.40;84.00;;;;;;5086690;28;20040;-76
2021/01/10 09:59:39;;;;;;;59.92;33.20;;;4.40;83.70;;;;;;5088232;28;20075;-76
2021/01/10 10:02:25;;;;;;;62.73;37.53;;;4.30;83.50;;;;;;5118481;27;20056;-76
2021/01/10 10:04:53;;;;;;;68.90;38.73;;;4.20;84.00;;;;;;5075765;28;20115;-77
2021/01/10 10:07:34;;;;;;;61.77;36.97;;;4.20;84.40;;;;;;5083608;28;20372;-77
2021/01/10 10:10:01;;;;;;;59.23;35.73;;;4.30;84.80;;;;;;5082861;28;20062;-77
2021/01/10 10:12:27;;;;;;;59.57;36.13;;;4.40;84.60;;;;;;5088456;28;20145;-78
2021/01/10 10:14:58;;;;;;;58.20;36.17;;;4.30;84.20;;;;;;5088626;28;20479;-78
2021/01/10 10:17:32;;;;;;;55.30;34.00;;;4.30;84.50;;;;;;5119111;28;20024;-77
2021/01/10 10:19:58;;;;;;;53.90;34.27;;;4.30;84.20;;;;;;5088123;28;20028;-76
2021/01/10 10:22:30;;;;;;;53.30;33.20;;;4.20;84.00;;;;;;5087462;28;20392;-76
2021/01/10 10:24:56;;;;;;;72.50;37.87;;;4.10;84.40;;;;;;5088407;28;20943;-77
2021/01/10 10:27:24;;;;;;;58.57;36.00;;;4.20;84.90;;;;;;5088612;28;20036;-78
2021/01/10 10:29:49;;;;;;;57.13;34.33;;;4.30;85.40;;;;;;5081360;28;20062;-78
2021/01/10 10:32:15;;;;;;;67.73;39.53;;;4.40;85.10;;;;;;5070428;28;20032;-77
2021/01/10 10:34:41;;;;;;;69.63;39.97;;;4.40;85.20;;;;;;5088720;28;20040;-77
2021/01/10 10:37:07;;;;;;;61.60;36.37;;;4.60;85.80;;;;;;5088655;28;20066;-78
2021/01/10 10:39:34;;;;;;;54.77;35.50;;;4.60;85.60;;;;;;5086235;28;20037;-77
2021/01/10 10:42:00;;;;;;;79.60;45.07;;;4.60;84.80;;;;;;5084032;28;20055;-77
2021/01/10 10:44:26;;;;;;;71.97;44.20;;;4.70;85.30;;;;;;5079810;28;20066;-79
2021/01/10 10:46:52;;;;;;;60.90;37.27;;;4.90;86.30;;;;;;5062261;28;20430;-77
2021/01/10 10:49:17;;;;;;;60.77;37.60;;;4.90;84.90;;;;;;5082124;28;20024;-78
2021/01/10 10:51:43;;;;;;;65.67;40.77;;;5.00;85.20;;;;;;5079753;28;20028;-79
2021/01/10 10:54:10;;;;;;;55.93;36.33;;;5.00;85.20;;;;;;5083752;28;20029;-76
2021/01/10 10:56:40;;;;;;;55.83;37.20;;;5.10;84.90;;;;;;5087164;28;20032;-77
2021/01/10 10:59:06;;;;;;;52.30;34.07;;;5.00;84.00;;;;;;5083442;28;20119;-78
2021/01/10 11:01:46;;;;;;;60.37;37.43;;;4.80;82.70;;;;;;5080494;28;20703;-78
2021/01/10 11:04:12;;;;;;;59.30;37.13;;;4.70;83.20;;;;;;5092482;28;20032;-78
2021/01/10 11:06:38;;;;;;;50.93;35.13;;;4.70;84.00;;;;;;5066162;28;20475;-76
2021/01/10 11:09:08;;;;;;;59.17;39.63;;;4.80;84.00;;;;;;5084242;28;20074;-78
2021/01/10 11:11:39;;;;;;;59.90;37.73;;;4.80;84.00;;;;;;5080497;28;20020;-78
2021/01/10 11:14:05;;;;;;;54.87;36.07;;;5.00;84.10;;;;;;5079473;28;20036;-78
2021/01/10 11:16:39;;;;;;;47.73;31.70;;;5.10;84.10;;;;;;5068661;28;20066;-78
2021/01/10 11:19:08;;;;;;;51.27;33.83;;;5.10;83.00;;;;;;5084343;28;20066;-77
2021/01/10 11:21:38;;;;;;;45.73;31.87;;;5.00;82.80;;;;;;5063824;28;20594;-78
2021/01/10 11:24:05;;;;;;;51.90;33.67;;;4.80;82.40;;;;;;5066825;28;20493;-78
2021/01/10 11:26:31;;;;;;;45.67;32.77;;;4.70;82.80;;;;;;5051401;28;20036;-79
2021/01/10 11:28:57;;;;;;;51.00;35.30;;;4.60;82.90;;;;;;5051155;28;20033;-78
2021/01/10 11:31:24;;;;;;;49.77;33.40;;;4.50;83.10;;;;;;5080843;28;20107;-78
2021/01/10 11:33:50;;;;;;;48.23;34.17;;;4.40;83.40;;;;;;5084223;28;20035;-76
2021/01/10 11:36:16;;;;;;;52.97;35.20;;;4.40;83.70;;;;;;5068306;28;20024;-76
2021/01/10 11:38:42;;;;;;;56.23;36.90;;;4.30;83.90;;;;;;5081992;28;20028;-78
2021/01/10 11:41:11;;;;;;;56.50;36.37;;;4.40;84.60;;;;;;5083484;28;20398;-77
2021/01/10 11:43:38;;;;;;;51.50;35.53;;;4.60;85.10;;;;;;5088594;28;20101;-78
2021/01/10 11:46:05;;;;;;;49.40;33.80;;;4.80;84.60;;;;;;5086560;28;20114;-78
2021/01/10 11:48:31;;;;;;;53.30;35.20;;;5.00;82.50;;;;;;5086569;28;20053;-77
2021/01/10 11:50:57;;;;;;;47.60;33.70;;;4.90;82.70;;;;;;5082747;28;20094;-78
2021/01/10 11:53:23;;;;;;;52.90;35.90;;;4.80;83.00;;;;;;5083084;28;20023;-78
2021/01/10 11:55:49;;;;;;;45.30;33.30;;;4.90;83.40;;;;;;5075439;28;20028;-76
2021/01/10 11:58:15;;;;;;;57.50;39.70;;;4.90;83.20;;;;;;5082594;28;20058;-77
2021/01/10 12:00:40;;;;;;;54.90;37.33;;;4.80;83.10;;;;;;5068954;28;20024;-77
2021/01/10 12:03:06;;;;;;;49.30;36.07;;;4.90;83.90;;;;;;5069109;28;20387;-78
2021/01/10 12:05:33;;;;;;;55.33;38.40;;;5.10;83.90;;;;;;5068680;28;20048;-79
2021/01/10 12:07:59;;;;;;;56.53;39.83;;;5.20;84.10;;;;;;5087220;28;20517;-78
2021/01/10 12:10:26;;;;;;;56.33;39.63;;;5.50;84.50;;;;;;5080656;28;20047;-78
2021/01/10 12:12:53;;;;;;;55.60;37.90;;;5.70;84.50;;;;;;5061917;28;20028;-78
2021/01/10 12:15:19;;;;;;;55.13;39.23;;;6.00;84.20;;;;;;5084837;28;20032;-77
2021/01/10 12:17:45;;;;;;;54.50;37.47;;;6.30;83.70;;;;;;5086021;28;20173;-78
2021/01/10 12:20:11;;;;;;;52.20;36.63;;;6.60;82.90;;;;;;5073403;28;20524;-78
2021/01/10 12:22:37;;;;;;;47.20;34.47;;;6.90;82.30;;;;;;5088867;28;20632;-77
2021/01/10 12:25:02;;;;;;;46.73;33.10;;;7.10;81.10;;;;;;5074232;28;20024;-78
2021/01/10 12:27:28;;;;;;;48.43;35.10;;;7.20;80.60;;;;;;5088921;28;20082;-79
2021/01/10 12:29:54;;;;;;;48.40;33.77;;;7.30;80.20;;;;;;5072660;28;20033;-78
2021/01/10 12:32:20;;;;;;;44.27;30.53;;;7.40;80.30;;;;;;5087692;28;20028;-78
2021/01/10 12:34:46;;;;;;;41.00;29.57;;;7.60;80.00;;;;;;5072483;28;20062;-78
2021/01/10 12:37:12;;;;;;;50.20;35.07;;;7.60;79.40;;;;;;5073905;28;20032;-78
2021/01/10 12:39:37;;;;;;;71.87;49.00;;;7.70;79.70;;;;;;5067688;28;20839;-78
2021/01/10 12:42:03;;;;;;;56.50;37.87;;;7.70;79.80;;;;;;5066922;28;21981;-78
2021/01/10 12:44:29;;;;;;;40.57;27.23;;;7.70;78.90;;;;;;5066053;28;20118;-78